Time;durP1;ratioP1;P1;durP2;ratioP2;P2;SDS_P1;SDS_P2;PMS_P1;PMS_P2;Temp;Humidity;BMP_temperature;BMP_pressure;BME280_temperature;BME280_humidity;BME280_pressure;Samples;Min_cycle;Max_cycle;Signal;HPM_P1;HPM_P2
2022/05/27 00:00:44;;;;;;;0.20;0.20;;;;;;;31.34;21.37;98352.06;5040145;28;20091;-78
2022/05/27 00:03:11;;;;;;;1.48;0.40;;;;;;;31.12;21.31;98345.78;5042395;28;20052;-78
2022/05/27 00:05:38;;;;;;;0.50;0.30;;;;;;;31.27;21.34;98338.22;5040654;28;20738;-77
2022/05/27 00:08:05;;;;;;;0.45;0.20;;;;;;;31.23;21.35;98338.38;5039265;28;20032;-78
2022/05/27 00:10:32;;;;;;;0.20;0.20;;;;;;;31.34;21.37;98340.72;5040291;28;20121;-78
2022/05/27 00:12:58;;;;;;;0.63;0.30;;;;;;;31.16;21.35;98337.91;5038548;28;20220;-78
2022/05/27 00:15:24;;;;;;;2.63;0.20;;;;;;;31.14;21.70;98346.09;5041408;28;20044;-77
2022/05/27 00:17:50;;;;;;;0.50;0.30;;;;;;;31.12;21.72;98337.28;5040211;28;20029;-78
2022/05/27 00:20:16;;;;;;;0.63;0.50;;;;;;;30.89;21.73;98338.75;5023264;28;20366;-78
2022/05/27 00:22:42;;;;;;;0.32;0.30;;;;;;;31.18;21.68;98333.31;5040105;28;20116;-78
2022/05/27 00:25:09;;;;;;;0.45;0.30;;;;;;;31.21;21.16;98335.22;5036984;28;20029;-78
2022/05/27 00:27:36;;;;;;;0.43;0.20;;;;;;;31.12;21.50;98325.94;5019046;28;20040;-78
2022/05/27 00:30:02;;;;;;;0.30;0.30;;;;;;;31.08;21.53;98328.97;5044507;28;20033;-78
2022/05/27 00:32:29;;;;;;;0.43;0.20;;;;;;;31.19;21.29;98325.59;5041654;28;20033;-77
2022/05/27 00:34:55;;;;;;;0.63;0.30;;;;;;;31.47;20.95;98321.44;5048707;28;20025;-78
2022/05/27 00:37:21;;;;;;;0.35;0.25;;;;;;;31.69;20.82;98324.03;5042450;28;20429;-78
2022/05/27 00:39:47;;;;;;;0.68;0.28;;;;;;;31.60;20.71;98322.00;5038998;28;20041;-78
2022/05/27 00:42:13;;;;;;;0.32;0.30;;;;;;;31.37;21.23;98319.88;5044015;28;20051;-78
2022/05/27 00:44:39;;;;;;;0.35;0.30;;;;;;;31.45;20.88;98312.63;5050218;28;20111;-78
2022/05/27 00:47:10;;;;;;;0.22;0.22;;;;;;;31.48;20.97;98314.53;5035927;28;20045;-78
2022/05/27 00:49:48;;;;;;;0.55;0.32;;;;;;;31.45;20.75;98309.00;5034918;28;21244;-78
2022/05/27 00:52:19;;;;;;;0.45;0.30;;;;;;;31.52;20.56;98311.50;5033454;28;20080;-78
2022/05/27 00:54:45;;;;;;;0.10;0.10;;;;;;;31.50;21.00;98305.50;5032943;28;20132;-78
2022/05/27 00:57:17;;;;;;;0.63;0.30;;;;;;;31.61;20.46;98312.25;5036737;28;20025;-78
2022/05/27 01:00:01;;;;;;;0.32;0.30;;;;;;;31.39;20.55;98303.94;5037769;28;20033;-78
2022/05/27 01:02:28;;;;;;;0.95;0.82;;;;;;;31.57;20.74;98308.81;5037493;28;20166;-78
2022/05/27 01:04:56;;;;;;;0.10;0.10;;;;;;;31.62;20.45;98298.84;5036661;28;20498;-78
2022/05/27 01:07:22;;;;;;;0.50;0.32;;;;;;;31.64;21.05;98302.78;5035036;28;20033;-78
2022/05/27 01:09:50;;;;;;;0.30;0.30;;;;;;;31.62;20.80;98313.81;5037355;28;20124;-78
2022/05/27 01:12:30;;;;;;;0.95;0.30;;;;;;;31.64;20.78;98310.50;5041943;28;20124;-78
2022/05/27 01:15:04;;;;;;;1.23;0.20;;;;;;;31.59;20.56;98309.09;5039239;28;20411;-78
2022/05/27 01:17:42;;;;;;;0.30;0.30;;;;;;;31.72;20.35;98308.88;5035087;28;20291;-78
2022/05/27 01:20:45;;;;;;;1.42;0.20;;;;;;;31.74;20.18;98309.97;5033550;28;20507;-78
2022/05/27 01:23:32;;;;;;;0.40;0.20;;;;;;;31.63;20.31;98306.06;5035547;28;20041;-78
2022/05/27 01:26:26;;;;;;;0.10;0.10;;;;;;;31.57;20.91;98297.44;5041703;28;20484;-78
2022/05/27 01:29:27;;;;;;;0.15;0.10;;;;;;;31.83;19.78;98300.63;5040711;28;20044;-78
2022/05/27 01:32:02;;;;;;;0.10;0.10;;;;;;;32.00;19.95;98298.94;5039266;28;20528;-78
2022/05/27 01:34:59;;;;;;;0.20;0.20;;;;;;;31.92;20.28;98290.00;5040018;28;20025;-78
2022/05/27 01:37:40;;;;;;;0.10;0.10;;;;;;;32.07;19.92;98288.00;5041400;28;20064;-78
2022/05/27 01:40:18;;;;;;;0.30;0.15;;;;;;;32.13;19.67;98279.63;5041853;28;20033;-78
2022/05/27 01:43:00;;;;;;;1.13;0.10;;;;;;;31.98;19.49;98282.41;5042081;28;20048;-78
2022/05/27 01:45:36;;;;;;;0.20;0.15;;;;;;;31.90;21.00;98283.22;5042405;28;20083;-78
2022/05/27 01:48:14;;;;;;;0.20;0.10;;;;;;;31.60;20.91;98287.94;5044399;28;20049;-78
2022/05/27 01:50:50;;;;;;;0.20;0.10;;;;;;;31.65;21.09;98284.47;5046242;28;20388;-78
2022/05/27 01:53:23;;;;;;;0.75;0.28;;;;;;;31.83;20.53;98277.91;5044133;28;20040;-78
2022/05/27 01:56:09;;;;;;;0.65;0.20;;;;;;;31.66;20.45;98285.25;5041916;28;20044;-78
2022/05/27 01:58:47;;;;;;;0.20;0.10;;;;;;;31.55;20.73;98279.31;5042569;28;20056;-78
2022/05/27 02:01:21;;;;;;;0.40;0.20;;;;;;;31.65;20.48;98273.09;5041746;28;20033;-78
2022/05/27 02:03:57;;;;;;;0.65;0.20;;;;;;;32.02;19.73;98276.56;5043777;28;20044;-77
2022/05/27 02:06:34;;;;;;;0.10;0.10;;;;;;;32.18;19.48;98261.91;5042025;28;20033;-77
2022/05/27 02:09:13;;;;;;;0.10;0.10;;;;;;;32.05;19.59;98267.03;5041478;28;20072;-78
2022/05/27 02:11:43;;;;;;;0.13;0.13;;;;;;;31.98;19.72;98261.72;5043744;28;20171;-78
2022/05/27 02:14:26;;;;;;;0.33;0.20;;;;;;;31.98;19.55;98262.50;5044096;28;20048;-78
2022/05/27 02:16:56;;;;;;;0.10;0.10;;;;;;;32.18;20.01;98259.06;5040954;28;20435;-78
2022/05/27 02:19:41;;;;;;;0.13;0.13;;;;;;;31.83;20.80;98269.38;5042278;28;20041;-78
2022/05/27 02:22:15;;;;;;;0.10;0.10;;;;;;;31.71;20.75;98261.88;5049070;28;20025;-78
2022/05/27 02:25:07;;;;;;;0.25;0.20;;;;;;;31.73;20.38;98265.81;5042335;28;20064;-77
2022/05/27 02:28:02;;;;;;;0.17;0.10;;;;;;;32.07;20.00;98265.28;5042164;28;20082;-77
2022/05/27 02:30:30;;;;;;;0.90;0.20;;;;;;;32.19;19.37;98262.66;5051144;28;20440;-78
2022/05/27 02:36:00;;;;;;;0.30;0.20;;;;;;;32.25;20.10;98252.22;5045828;28;20039;-78
2022/05/27 02:38:27;;;;;;;0.85;0.38;;;;;;;32.10;20.21;98252.16;5040355;28;20075;-78
2022/05/27 02:41:15;;;;;;;0.40;0.10;;;;;;;31.93;21.03;98251.78;5042973;28;20112;-78
2022/05/27 02:44:07;;;;;;;0.10;0.10;;;;;;;31.79;20.65;98244.00;5020937;28;20108;-78
2022/05/27 02:47:11;;;;;;;0.10;0.10;;;;;;;31.89;20.90;98253.25;5038375;28;20424;-78
2022/05/27 02:50:16;;;;;;;0.43;0.10;;;;;;;31.94;20.43;98244.06;5043386;28;20040;-78
2022/05/27 02:53:00;;;;;;;0.10;0.10;;;;;;;32.14;19.90;98240.63;5031660;28;20065;-78
2022/05/27 02:55:26;;;;;;;0.40;0.10;;;;;;;32.45;19.94;98236.09;5027565;28;20024;-78
2022/05/27 02:57:54;;;;;;;0.08;0.08;;;;;;;32.58;19.68;98235.84;5041222;28;20033;-78
2022/05/27 03:00:26;;;;;;;0.73;0.17;;;;;;;32.24;20.69;98239.28;5038350;28;20037;-78
2022/05/27 03:02:53;;;;;;;0.10;0.10;;;;;;;32.24;20.67;98240.06;5042653;28;20044;-78
2022/05/27 03:05:25;;;;;;;0.10;0.10;;;;;;;32.16;20.77;98238.84;5045025;28;20059;-78
2022/05/27 03:08:06;;;;;;;0.15;0.15;;;;;;;32.04;20.69;98237.84;5049639;28;20459;-78
2022/05/27 03:10:44;;;;;;;0.80;0.15;;;;;;;32.21;20.42;98237.44;5043865;28;20533;-78
2022/05/27 03:13:19;;;;;;;0.10;0.00;;;;;;;32.07;20.31;98233.25;5049587;28;20037;-78
2022/05/27 03:16:28;;;;;;;0.00;0.00;;;;;;;32.03;20.07;98235.50;5043809;28;20033;-78
2022/05/27 03:19:11;;;;;;;0.30;0.10;;;;;;;32.08;20.31;98229.94;5042745;28;20029;-78
2022/05/27 03:21:54;;;;;;;0.65;0.30;;;;;;;32.09;20.19;98234.34;5043836;28;20040;-78
2022/05/27 03:24:35;;;;;;;3.42;0.20;;;;;;;32.24;20.47;98230.75;5045069;28;20602;-78
2022/05/27 03:27:20;;;;;;;0.28;0.10;;;;;;;32.38;20.23;98232.84;5050360;28;20508;-78
2022/05/27 03:29:53;;;;;;;0.10;0.05;;;;;;;32.30;20.04;98229.56;5046911;28;20033;-78
2022/05/27 03:32:22;;;;;;;0.10;0.10;;;;;;;32.50;19.73;98226.91;5042697;28;20025;-78
2022/05/27 03:34:56;;;;;;;0.55;0.20;;;;;;;32.47;20.28;98221.38;5043415;28;20131;-78
2022/05/27 03:37:25;;;;;;;0.47;0.08;;;;;;;32.47;20.15;98218.53;5042086;28;20107;-78
2022/05/27 03:39:54;;;;;;;2.20;0.10;;;;;;;32.52;20.40;98215.84;5045850;28;20034;-78
2022/05/27 03:42:24;;;;;;;0.10;0.10;;;;;;;32.59;20.51;98214.66;5040140;28;20087;-78
2022/05/27 03:44:57;;;;;;;0.63;0.20;;;;;;;32.76;20.15;98215.75;5044001;28;20388;-78
2022/05/27 03:47:23;;;;;;;0.05;0.00;;;;;;;32.78;19.87;98221.72;5043460;28;20076;-78
2022/05/27 03:49:49;;;;;;;0.10;0.10;;;;;;;32.66;20.19;98217.13;5044486;28;20032;-78
2022/05/27 03:52:20;;;;;;;2.13;0.13;;;;;;;32.66;20.50;98215.06;5044388;28;20041;-78
2022/05/27 03:54:46;;;;;;;0.28;0.20;;;;;;;32.81;19.67;98205.75;5045979;28;20036;-78
2022/05/27 03:57:12;;;;;;;0.10;0.10;;;;;;;32.69;19.89;98207.59;5041579;28;20485;-78
2022/05/27 03:59:39;;;;;;;0.10;0.10;;;;;;;32.74;20.07;98206.94;5041967;28;20026;-80
2022/05/27 04:02:05;;;;;;;0.03;0.00;;;;;;;32.83;20.42;98211.72;5042361;28;20049;-80
2022/05/27 04:04:31;;;;;;;0.10;0.10;;;;;;;32.77;20.61;98202.31;5042485;28;20420;-80
2022/05/27 04:06:58;;;;;;;0.20;0.15;;;;;;;32.53;20.74;98206.03;5050626;28;20086;-80
2022/05/27 04:09:25;;;;;;;0.10;0.10;;;;;;;32.46;20.90;98208.44;5046065;28;20091;-80
2022/05/27 04:11:52;;;;;;;0.45;0.08;;;;;;;32.53;20.83;98200.38;5042317;28;20048;-80
2022/05/27 04:14:19;;;;;;;0.10;0.10;;;;;;;32.36;22.21;98193.53;5038038;28;20034;-80
2022/05/27 04:16:45;;;;;;;0.15;0.10;;;;;;;32.70;21.51;98197.78;5039155;28;20456;-80
2022/05/27 04:19:12;;;;;;;0.10;0.10;;;;;;;32.80;21.86;98193.56;5040079;28;20108;-79
2022/05/27 04:21:39;;;;;;;2.78;0.20;;;;;;;33.03;21.34;98191.91;5038638;28;20032;-77
2022/05/27 04:24:06;;;;;;;0.17;0.10;;;;;;;33.29;21.86;98202.16;5039914;28;20029;-76
2022/05/27 04:26:32;;;;;;;0.55;0.08;;;;;;;33.58;21.77;98187.09;5041453;28;20040;-77
2022/05/27 04:29:00;;;;;;;0.25;0.00;;;;;;;33.92;21.10;98191.94;5039440;28;20568;-77
2022/05/27 04:31:26;;;;;;;0.32;0.00;;;;;;;34.57;20.93;98187.53;5038799;28;20488;-76
2022/05/27 04:33:52;;;;;;;0.45;0.10;;;;;;;34.89;20.10;98187.56;5041138;28;20427;-76
2022/05/27 04:36:18;;;;;;;0.10;0.10;;;;;;;34.97;18.42;98183.75;5036035;28;20044;-76
2022/05/27 04:38:44;;;;;;;2.20;0.30;;;;;;;34.84;18.94;98188.31;5037200;28;20033;-76
2022/05/27 04:41:10;;;;;;;0.10;0.10;;;;;;;34.73;19.21;98191.81;5039910;28;20033;-76
2022/05/27 04:43:36;;;;;;;0.55;0.13;;;;;;;34.89;19.72;98181.84;5041044;28;20033;-76
2022/05/27 04:46:04;;;;;;;0.30;0.10;;;;;;;35.10;19.80;98177.66;5044373;28;20037;-79
2022/05/27 04:48:30;;;;;;;0.73;0.10;;;;;;;35.26;19.11;98185.56;5046038;28;20489;-79
2022/05/27 04:50:56;;;;;;;0.10;0.10;;;;;;;35.33;18.10;98185.88;5046750;28;20112;-77
2022/05/27 04:53:24;;;;;;;0.20;0.10;;;;;;;35.21;18.60;98180.56;5055350;28;20033;-78
2022/05/27 04:55:50;;;;;;;1.00;0.38;;;;;;;35.15;18.30;98186.22;5046520;28;20044;-77
2022/05/27 04:58:16;;;;;;;0.22;0.22;;;;;;;35.23;19.51;98175.94;5046100;28;20051;-76
2022/05/27 05:00:46;;;;;;;0.40;0.03;;;;;;;35.42;18.50;98176.31;5044364;28;20025;-78
2022/05/27 05:03:13;;;;;;;0.25;0.20;;;;;;;35.61;19.03;98177.50;5046225;28;20400;-77
2022/05/27 05:05:39;;;;;;;0.55;0.20;;;;;;;36.04;18.85;98167.56;5052676;28;20033;-77
2022/05/27 05:08:24;;;;;;;0.43;0.28;;;;;;;36.41;17.90;98172.34;5053500;28;20091;-78
2022/05/27 05:10:50;;;;;;;0.32;0.20;;;;;;;36.33;17.60;98171.28;5046689;28;20033;-78
2022/05/27 05:13:16;;;;;;;0.10;0.10;;;;;;;35.90;17.57;98171.38;5048485;28;20374;-77
2022/05/27 05:15:42;;;;;;;0.35;0.10;;;;;;;35.68;17.92;98161.94;5048291;28;20108;-78
2022/05/27 05:18:08;;;;;;;2.33;0.85;;;;;;;35.35;18.30;98159.66;5054489;28;20111;-77
2022/05/27 05:20:34;;;;;;;0.15;0.10;;;;;;;35.46;17.71;98156.06;5053239;28;20411;-77
2022/05/27 05:23:01;;;;;;;0.10;0.10;;;;;;;35.38;18.75;98147.97;5055983;28;20084;-76
2022/05/27 05:25:28;;;;;;;0.22;0.10;;;;;;;35.53;17.85;98153.53;5052635;28;20040;-77
2022/05/27 05:27:55;;;;;;;0.60;0.10;;;;;;;34.98;17.89;98144.56;5054550;28;20504;-77
2022/05/27 05:30:23;;;;;;;0.10;0.10;;;;;;;34.94;18.80;98155.44;5050755;28;20098;-77
2022/05/27 05:32:50;;;;;;;0.20;0.10;;;;;;;35.17;18.28;98148.63;5053946;28;20045;-78
2022/05/27 05:35:17;;;;;;;0.10;0.10;;;;;;;35.51;18.47;98150.41;5054827;28;20076;-77
2022/05/27 05:37:43;;;;;;;0.20;0.00;;;;;;;35.50;17.49;98142.34;5048934;28;20124;-77
2022/05/27 05:40:11;;;;;;;1.15;0.10;;;;;;;35.34;17.62;98141.72;5052935;28;20457;-77
2022/05/27 05:42:38;;;;;;;0.10;0.10;;;;;;;35.08;17.96;98141.03;5055768;28;20041;-77
2022/05/27 05:45:05;;;;;;;0.30;0.10;;;;;;;35.03;18.60;98141.78;5052097;28;20056;-77
2022/05/27 05:47:32;;;;;;;0.30;0.10;;;;;;;35.31;18.31;98136.25;5048595;28;20072;-77
2022/05/27 05:49:58;;;;;;;0.00;0.00;;;;;;;35.56;17.89;98129.69;5052668;28;20029;-77
2022/05/27 05:52:24;;;;;;;0.22;0.10;;;;;;;35.36;18.50;98126.94;5053516;28;20095;-77
2022/05/27 05:54:50;;;;;;;0.10;0.05;;;;;;;35.52;18.49;98134.84;5054676;28;20033;-78
2022/05/27 05:57:16;;;;;;;0.20;0.10;;;;;;;35.78;17.57;98126.91;5054665;28;20064;-78
2022/05/27 05:59:42;;;;;;;1.75;0.15;;;;;;;35.55;17.87;98127.31;5049017;28;20087;-77
2022/05/27 06:02:09;;;;;;;0.10;0.10;;;;;;;35.66;17.42;98131.00;5051488;28;20037;-78
2022/05/27 06:04:35;;;;;;;0.10;0.10;;;;;;;35.34;17.88;98124.59;5056333;28;20049;-77
2022/05/27 06:07:02;;;;;;;0.25;0.10;;;;;;;35.41;17.80;98117.59;5048582;28;20055;-77
2022/05/27 06:09:28;;;;;;;0.10;0.10;;;;;;;35.31;17.41;98119.13;5044446;28;20145;-77
2022/05/27 06:11:56;;;;;;;0.90;0.30;;;;;;;35.40;18.05;98119.69;5054155;28;20040;-76
2022/05/27 06:14:22;;;;;;;0.10;0.10;;;;;;;35.61;18.82;98119.56;5055786;28;20374;-76
2022/05/27 06:16:49;;;;;;;0.20;0.10;;;;;;;35.70;17.74;98111.56;5052445;28;20087;-77
2022/05/27 06:19:15;;;;;;;0.20;0.20;;;;;;;35.72;17.19;98099.59;5055706;28;20108;-77
2022/05/27 06:21:41;;;;;;;0.10;0.10;;;;;;;35.39;17.94;98103.06;5055166;28;20108;-77
2022/05/27 06:24:07;;;;;;;0.30;0.10;;;;;;;35.56;18.83;98103.19;5046801;28;20033;-76
2022/05/27 06:26:33;;;;;;;1.10;0.20;;;;;;;35.59;17.22;98099.31;5049627;28;20037;-77
2022/05/27 06:34:29;;;;;;;0.10;0.10;;;;;;;36.21;17.22;98098.19;5054857;28;20046;-77
2022/05/27 06:37:04;;;;;;;0.10;0.05;;;;;;;36.19;17.17;98078.72;5051937;28;20029;-77
2022/05/27 06:39:31;;;;;;;0.20;0.20;;;;;;;36.07;17.46;98077.13;5052772;28;20544;-77
2022/05/27 06:41:58;;;;;;;0.20;0.15;;;;;;;36.23;17.17;98081.31;5050257;28;20029;-77
2022/05/27 06:44:24;;;;;;;0.45;0.10;;;;;;;35.76;17.59;98075.19;5046325;28;20079;-77
2022/05/27 06:46:51;;;;;;;0.20;0.10;;;;;;;35.88;17.82;98076.00;5051393;28;20392;-77
2022/05/27 06:49:18;;;;;;;0.10;0.10;;;;;;;35.94;17.47;98068.25;5049851;28;20037;-77
2022/05/27 06:51:46;;;;;;;0.10;0.10;;;;;;;35.97;17.91;98079.44;5048210;28;20069;-78
2022/05/27 06:54:13;;;;;;;0.20;0.10;;;;;;;35.65;17.66;98069.47;5055175;28;20029;-77
2022/05/27 06:56:41;;;;;;;0.10;0.10;;;;;;;35.62;17.55;98066.84;5052012;28;20033;-77
2022/05/27 06:59:08;;;;;;;0.10;0.10;;;;;;;35.49;17.32;98067.28;5035055;28;20501;-77
2022/05/27 07:01:35;;;;;;;0.13;0.13;;;;;;;35.77;18.23;98056.78;5031006;28;20562;-77
2022/05/27 07:04:02;;;;;;;0.47;0.20;;;;;;;35.88;17.70;98064.59;5051846;28;20033;-77
2022/05/27 07:06:37;;;;;;;0.03;0.00;;;;;;;35.77;17.39;98058.84;5035869;28;20119;-77
2022/05/27 07:09:05;;;;;;;0.10;0.10;;;;;;;35.80;17.31;98057.81;5034682;28;20036;-77
2022/05/27 07:11:32;;;;;;;0.25;0.10;;;;;;;35.36;17.56;98052.69;5052301;28;20028;-77
2022/05/27 07:13:58;;;;;;;1.08;0.20;;;;;;;35.36;17.97;98046.97;5050959;28;20090;-77
2022/05/27 07:16:26;;;;;;;0.50;0.10;;;;;;;35.70;17.45;98056.47;5054948;28;20052;-78
2022/05/27 07:18:53;;;;;;;0.10;0.05;;;;;;;36.04;17.35;98053.22;5043754;28;20041;-78
2022/05/27 07:21:19;;;;;;;0.10;0.10;;;;;;;35.71;17.73;98038.81;5046603;28;20389;-78
2022/05/27 07:23:45;;;;;;;0.25;0.03;;;;;;;35.98;17.56;98043.06;5018564;28;20054;-78
2022/05/27 07:26:12;;;;;;;0.43;0.13;;;;;;;36.25;17.40;98041.53;5050826;28;20052;-78
2022/05/27 07:28:38;;;;;;;0.38;0.10;;;;;;;36.37;17.14;98037.38;5052522;28;20451;-78
2022/05/27 07:31:05;;;;;;;0.55;0.10;;;;;;;36.71;16.88;98024.66;5051302;28;20033;-77
2022/05/27 07:33:31;;;;;;;0.30;0.20;;;;;;;36.36;17.35;98035.84;5051856;28;20053;-78
2022/05/27 07:35:57;;;;;;;0.95;0.10;;;;;;;36.19;16.89;98026.47;5041437;28;20029;-77
2022/05/27 07:38:23;;;;;;;0.10;0.10;;;;;;;36.20;17.08;98019.47;5050013;28;20115;-78
2022/05/27 07:40:50;;;;;;;1.15;0.10;;;;;;;36.27;17.15;98013.22;5051671;28;20961;-77
2022/05/27 07:43:16;;;;;;;0.20;0.10;;;;;;;36.31;16.67;98025.16;5039363;28;20110;-78
2022/05/27 07:45:44;;;;;;;0.13;0.13;;;;;;;36.55;17.18;98025.47;5049126;28;20040;-78
2022/05/27 07:48:10;;;;;;;0.38;0.10;;;;;;;36.69;16.85;98027.25;5053401;28;20072;-78
2022/05/27 07:50:38;;;;;;;0.40;0.20;;;;;;;36.46;16.48;98011.41;5050464;28;20028;-78
2022/05/27 07:53:05;;;;;;;0.45;0.22;;;;;;;35.98;17.24;98021.00;5051290;28;20041;-78
2022/05/27 07:55:31;;;;;;;0.20;0.20;;;;;;;36.38;16.89;98010.34;5052146;28;20036;-78
2022/05/27 07:57:58;;;;;;;0.40;0.20;;;;;;;36.39;17.27;97994.72;5052806;28;20362;-77
2022/05/27 08:00:28;;;;;;;2.33;0.20;;;;;;;35.89;17.18;98009.78;5050522;28;20385;-78
2022/05/27 08:02:54;;;;;;;0.43;0.17;;;;;;;35.37;17.84;98002.84;5053412;28;20041;-77
2022/05/27 08:05:23;;;;;;;0.35;0.20;;;;;;;35.23;17.08;97990.34;5048666;28;20439;-77
2022/05/27 08:07:51;;;;;;;0.20;0.10;;;;;;;35.81;17.36;97990.78;5048465;28;20021;-78
2022/05/27 08:10:20;;;;;;;0.40;0.20;;;;;;;36.01;17.56;97974.19;5052537;28;20044;-78
2022/05/27 08:12:46;;;;;;;0.85;0.35;;;;;;;36.09;16.78;97968.75;5051757;28;20036;-78
2022/05/27 08:15:13;;;;;;;5.82;0.30;;;;;;;35.96;16.93;97960.69;5052227;28;20061;-78
2022/05/27 08:17:40;;;;;;;0.38;0.13;;;;;;;36.08;17.09;97965.09;5051927;28;20385;-78
2022/05/27 08:20:09;;;;;;;0.20;0.15;;;;;;;36.24;16.87;97951.34;5053681;28;20384;-78
2022/05/27 08:22:35;;;;;;;0.20;0.10;;;;;;;36.24;16.46;97942.75;5049786;28;20481;-78
2022/05/27 08:25:01;;;;;;;0.20;0.10;;;;;;;36.23;16.37;97959.13;5049890;28;20505;-78
2022/05/27 08:27:27;;;;;;;0.20;0.08;;;;;;;36.07;16.59;97951.34;5051746;28;20103;-78
2022/05/27 08:29:53;;;;;;;0.30;0.10;;;;;;;36.33;16.83;97951.84;5051040;28;20041;-78
2022/05/27 08:32:20;;;;;;;0.20;0.10;;;;;;;36.47;17.09;97952.91;5053013;28;20033;-78
2022/05/27 08:40:38;;;;;;;0.20;0.10;;;;;;;34.99;18.57;97949.19;5035431;28;20044;-77
2022/05/27 08:43:19;;;;;;;0.35;0.30;;;;;;;34.98;18.41;97948.44;5052941;28;20028;-78
2022/05/27 08:46:16;;;;;;;0.32;0.10;;;;;;;35.73;17.90;97941.19;5047600;28;20033;-78
2022/05/27 08:48:46;;;;;;;1.75;0.20;;;;;;;35.95;17.59;97949.75;5049572;28;20052;-78
2022/05/27 08:51:35;;;;;;;0.20;0.20;;;;;;;35.71;17.35;97944.53;5048378;28;20037;-77
2022/05/27 08:54:10;;;;;;;0.45;0.30;;;;;;;35.88;17.55;97939.63;5048186;28;20443;-78
2022/05/27 08:59:58;;;;;;;0.28;0.22;;;;;;;35.83;17.07;97934.69;5052326;28;20044;-78
2022/05/27 09:02:31;;;;;;;0.43;0.13;;;;;;;36.45;16.77;97929.78;5022712;28;20025;-78
2022/05/27 09:05:03;;;;;;;1.08;0.90;;;;;;;36.19;17.27;97932.09;5047490;28;20029;-78
2022/05/27 09:07:52;;;;;;;0.38;0.20;;;;;;;36.78;17.57;97928.91;5050365;28;20086;-77
2022/05/27 09:10:37;;;;;;;0.47;0.20;;;;;;;36.76;17.22;97929.41;5044749;28;20025;-78
2022/05/27 09:13:14;;;;;;;0.20;0.20;;;;;;;36.52;17.63;97917.78;5050996;28;20519;-78
2022/05/27 09:16:04;;;;;;;0.63;0.20;;;;;;;36.58;16.97;97916.47;5051096;28;20166;-78
2022/05/27 09:18:39;;;;;;;0.40;0.30;;;;;;;36.90;17.04;97908.28;5051504;28;20041;-78
2022/05/27 09:21:07;;;;;;;0.52;0.20;;;;;;;37.15;17.76;97906.38;5050001;28;20103;-78
2022/05/27 09:23:45;;;;;;;0.13;0.10;;;;;;;37.59;16.56;97909.00;5051005;28;20044;-78
2022/05/27 09:26:30;;;;;;;0.20;0.20;;;;;;;37.43;16.63;97906.25;5050376;28;20044;-78
2022/05/27 09:29:05;;;;;;;1.02;0.10;;;;;;;37.42;16.92;97898.94;5052928;28;20428;-79
2022/05/27 09:31:50;;;;;;;0.40;0.20;;;;;;;37.85;16.69;97895.03;5032685;28;20045;-78
2022/05/27 09:34:16;;;;;;;0.30;0.10;;;;;;;37.13;16.38;97895.44;5050977;28;20030;-78
2022/05/27 09:36:47;;;;;;;0.10;0.10;;;;;;;37.35;17.16;97894.53;5043775;28;20037;-78
2022/05/27 09:39:15;;;;;;;;;;;;;;;36.85;17.64;97886.22;5052101;28;20052;-78
2022/05/27 09:42:03;;;;;;;1.05;0.30;;;;;;;36.74;17.10;97889.09;5049755;28;19917;-78
2022/05/27 09:44:41;;;;;;;0.40;0.10;;;;;;;37.17;16.49;97886.59;5045829;28;20040;-78
2022/05/27 09:47:07;;;;;;;0.32;0.20;;;;;;;36.94;17.03;97877.34;5052562;28;20045;-78
2022/05/27 09:49:34;;;;;;;0.20;0.20;;;;;;;37.22;16.88;97877.97;5046111;28;20064;-78
2022/05/27 09:52:01;;;;;;;1.15;0.20;;;;;;;37.21;17.71;97862.09;5047419;28;20421;-78
2022/05/27 09:54:27;;;;;;;0.63;0.25;;;;;;;36.88;17.30;97870.81;5049236;28;20419;-78
2022/05/27 09:57:04;;;;;;;0.17;0.17;;;;;;;37.28;17.10;97872.97;5049861;28;20130;-78
2022/05/27 09:59:47;;;;;;;0.20;0.15;;;;;;;37.31;16.29;97860.47;5049957;28;20111;-78
2022/05/27 10:02:21;;;;;;;0.50;0.20;;;;;;;37.11;16.69;97860.09;5052271;28;20037;-77
2022/05/27 10:04:50;;;;;;;0.88;0.20;;;;;;;36.29;18.28;97859.06;5051243;28;20033;-77
2022/05/27 10:07:30;;;;;;;0.30;0.20;;;;;;;36.55;17.62;97859.53;5049599;28;20111;-78
2022/05/27 10:09:57;;;;;;;0.70;0.20;;;;;;;36.88;17.78;97852.88;5051148;28;20037;-77
2022/05/27 10:12:32;;;;;;;0.10;0.10;;;;;;;36.65;17.24;97841.53;5055834;28;20064;-78
2022/05/27 10:14:58;;;;;;;1.48;0.20;;;;;;;36.99;16.26;97850.00;5052728;28;20032;-77
2022/05/27 10:17:36;;;;;;;0.20;0.20;;;;;;;36.74;16.82;97841.22;5036945;28;20044;-78
2022/05/27 10:20:20;;;;;;;0.38;0.20;;;;;;;37.01;16.88;97838.78;5056087;28;20099;-78
2022/05/27 10:23:05;;;;;;;0.55;0.25;;;;;;;36.59;17.16;97840.00;5053988;28;20040;-78
2022/05/27 10:25:36;;;;;;;0.43;0.30;;;;;;;36.67;16.82;97832.41;5052995;28;20138;-77
2022/05/27 10:28:03;;;;;;;;;;;;;;;36.65;16.92;97835.03;5053896;28;20433;-78
2022/05/27 10:30:33;;;;;;;0.20;0.20;;;;;;;36.28;17.30;97823.94;5035735;28;20023;-78
2022/05/27 10:33:22;;;;;;;0.28;0.28;;;;;;;36.33;17.47;97822.38;5055411;28;20476;-78
2022/05/27 10:35:50;;;;;;;0.30;0.13;;;;;;;36.87;17.37;97820.63;5053345;28;20064;-78
2022/05/27 10:38:35;;;;;;;1.48;0.22;;;;;;;37.05;17.12;97827.81;5051201;28;20051;-78
2022/05/27 10:41:15;;;;;;;0.45;0.20;;;;;;;37.53;16.69;97821.53;5051221;28;20060;-78
2022/05/27 10:44:05;;;;;;;0.30;0.20;;;;;;;37.38;16.63;97816.97;5052575;28;20102;-78
2022/05/27 10:46:38;;;;;;;0.75;0.25;;;;;;;37.32;16.25;97821.13;5045466;28;20036;-78
2022/05/27 10:49:38;;;;;;;0.82;0.20;;;;;;;37.48;16.51;97805.94;5047933;28;20151;-78
2022/05/27 10:52:15;;;;;;;1.60;0.32;;;;;;;37.21;16.80;97790.50;5053182;28;20032;-78
2022/05/27 10:55:25;;;;;;;0.60;0.20;;;;;;;37.83;16.54;97791.56;5053403;28;20041;-78
2022/05/27 11:04:26;;;;;;;0.30;0.20;;;;;;;36.77;17.25;97785.03;4973444;28;20041;-77
2022/05/27 11:07:31;;;;;;;1.10;0.25;;;;;;;36.71;17.38;97790.75;5049450;28;20207;-78
2022/05/27 11:10:12;;;;;;;3.63;0.20;;;;;;;36.45;17.55;97789.59;4991478;28;20049;-78
2022/05/27 11:15:49;;;;;;;1.85;0.20;;;;;;;36.81;17.62;97768.34;5054800;28;20040;-78
2022/05/27 11:18:22;;;;;;;0.28;0.20;;;;;;;36.78;17.36;97780.09;5052363;28;20124;-78
2022/05/27 11:20:48;;;;;;;0.28;0.28;;;;;;;36.54;17.14;97775.00;5048058;28;20036;-78
2022/05/27 11:23:30;;;;;;;0.30;0.10;;;;;;;35.70;18.41;97776.50;5036535;28;20037;-78
2022/05/27 11:25:59;;;;;;;0.30;0.20;;;;;;;35.22;18.58;97760.38;5047848;28;20079;-78
2022/05/27 11:28:42;;;;;;;0.22;0.20;;;;;;;35.04;19.02;97769.47;5050347;28;20021;-78
2022/05/27 11:31:11;;;;;;;0.75;0.40;;;;;;;35.10;18.73;97773.09;5034751;28;20477;-78
2022/05/27 11:33:54;;;;;;;1.63;0.30;;;;;;;35.59;18.43;97767.94;5046625;28;20029;-78
2022/05/27 11:36:38;;;;;;;1.45;0.20;;;;;;;35.82;18.80;97763.75;5054438;28;20032;-78
2022/05/27 11:39:25;;;;;;;0.88;0.20;;;;;;;35.68;18.54;97753.38;5052957;28;20033;-78
2022/05/27 11:42:11;;;;;;;2.15;0.20;;;;;;;35.95;18.37;97741.09;5051883;28;20087;-78
2022/05/27 11:44:43;;;;;;;0.20;0.20;;;;;;;36.00;17.99;97741.13;5054129;28;20080;-78
2022/05/27 11:47:19;;;;;;;1.88;0.25;;;;;;;35.05;18.95;97741.69;5049386;28;20038;-78
2022/05/27 11:50:22;;;;;;;0.20;0.20;;;;;;;35.19;19.06;97758.59;5047081;28;20032;-78
2022/05/27 11:53:10;;;;;;;0.95;0.20;;;;;;;35.13;19.09;97746.38;5044152;28;20029;-78
2022/05/27 11:55:53;;;;;;;1.25;0.10;;;;;;;35.26;18.84;97758.06;5047311;28;20037;-78
2022/05/27 11:58:41;;;;;;;0.40;0.30;;;;;;;34.83;19.03;97748.13;5051153;28;20456;-79
2022/05/27 12:01:13;;;;;;;3.05;0.50;;;;;;;34.27;19.17;97749.22;5049114;28;20029;-78
2022/05/27 12:03:50;;;;;;;0.43;0.30;;;;;;;34.55;19.03;97741.56;5053057;28;20049;-78
2022/05/27 12:06:27;;;;;;;0.35;0.20;;;;;;;34.88;18.71;97749.44;5053809;28;20051;-78
2022/05/27 12:09:13;;;;;;;0.57;0.20;;;;;;;34.59;19.23;97742.09;5048653;28;20067;-78
2022/05/27 12:11:46;;;;;;;0.88;0.30;;;;;;;35.26;18.92;97746.66;5053161;28;20103;-78
2022/05/27 12:14:37;;;;;;;1.02;0.30;;;;;;;34.86;18.88;97738.53;5051696;28;20039;-78
2022/05/27 12:17:05;;;;;;;1.35;0.30;;;;;;;34.36;19.33;97726.19;5053703;28;20029;-79
2022/05/27 12:19:38;;;;;;;0.85;0.30;;;;;;;34.50;19.54;97737.38;5051418;28;20413;-78
2022/05/27 12:22:25;;;;;;;1.08;0.30;;;;;;;34.02;19.75;97739.50;5049166;28;20048;-78
2022/05/27 12:25:00;;;;;;;0.57;0.25;;;;;;;34.50;19.69;97733.75;5051468;28;20365;-78
2022/05/27 12:27:27;;;;;;;0.63;0.20;;;;;;;34.77;19.40;97732.31;5040059;28;20052;-79